createdAt,value
2024-04-25T00:00:03.127Z,58.70
2024-04-25T00:02:38.006Z,58.50
2024-04-25T00:05:09.345Z,58.60
2024-04-25T00:07:40.637Z,58.20
2024-04-25T00:10:11.662Z,58.40
2024-04-25T00:12:43.166Z,57.70
2024-04-25T00:15:14.681Z,57.20
2024-04-25T00:17:48.324Z,57.00
2024-04-25T00:20:19.055Z,57.70
2024-04-25T00:22:50.387Z,58.70
2024-04-25T00:25:21.435Z,59.20
2024-04-25T00:27:52.030Z,59.10
2024-04-25T00:30:22.648Z,60.40
2024-04-25T00:32:56.641Z,60.40
2024-04-25T00:35:27.467Z,60.80
2024-04-25T00:37:58.777Z,60.80
2024-04-25T00:40:29.787Z,60.40
2024-04-25T00:43:02.095Z,60.00
2024-04-25T00:45:33.983Z,60.20
2024-04-25T00:48:09.762Z,59.80
2024-04-25T00:50:41.419Z,59.80
2024-04-25T00:53:12.509Z,59.50
2024-04-25T00:55:43.037Z,59.20
2024-04-25T00:58:15.527Z,59.10
2024-04-25T01:00:47.546Z,59.10
2024-04-25T01:03:21.603Z,58.00
2024-04-25T01:05:52.975Z,56.70
2024-04-25T01:08:24.508Z,57.70
2024-04-25T01:10:55.898Z,58.50
2024-04-25T01:13:26.951Z,58.60
2024-04-25T01:15:57.983Z,57.80
2024-04-25T01:18:31.420Z,57.50
2024-04-25T01:21:02.726Z,57.00
2024-04-25T01:23:40.864Z,57.00
2024-04-25T01:26:15.974Z,57.40
2024-04-25T01:28:47.575Z,57.20
2024-04-25T01:31:18.856Z,58.50
2024-04-25T01:33:50.511Z,58.60
2024-04-25T01:36:22.383Z,59.50
2024-04-25T01:38:53.633Z,60.10
2024-04-25T01:41:27.439Z,60.30
2024-04-25T01:43:58.423Z,60.20
2024-04-25T01:46:29.713Z,60.80
2024-04-25T01:49:01.366Z,61.40
2024-04-25T01:51:32.432Z,61.40
2024-04-25T01:54:03.243Z,61.90
2024-04-25T01:56:37.312Z,62.10
2024-04-25T01:59:08.856Z,62.50
2024-04-25T02:01:39.782Z,62.80
2024-04-25T02:04:10.936Z,62.60
2024-04-25T02:06:41.861Z,62.70
2024-04-25T02:09:12.842Z,62.70
2024-04-25T02:11:47.031Z,63.10
2024-04-25T02:14:18.226Z,63.50
2024-04-25T02:16:48.995Z,64.80
2024-04-25T02:19:19.681Z,67.30
2024-04-25T02:22:06.038Z,69.40
2024-04-25T02:24:52.826Z,71.80
2024-04-25T02:27:26.160Z,74.20
2024-04-25T02:29:57.003Z,76.60
2024-04-25T02:32:28.212Z,78.80
2024-04-25T02:34:59.143Z,80.40
2024-04-25T02:37:29.985Z,81.40
2024-04-25T02:40:01.109Z,83.00
2024-04-25T02:42:34.873Z,84.30
2024-04-25T02:45:06.286Z,83.90
2024-04-25T02:47:35.164Z,84.60
2024-04-25T02:50:06.487Z,85.80
2024-04-25T02:52:35.025Z,85.40
2024-04-25T02:55:06.355Z,87.10
2024-04-25T02:57:37.251Z,86.90
2024-04-25T03:00:12.081Z,89.20
2024-04-25T03:02:41.216Z,89.00
2024-04-25T03:05:12.202Z,90.50
2024-04-25T03:07:42.935Z,89.80
2024-04-25T03:10:16.839Z,90.30
2024-04-25T03:12:47.814Z,90.30
2024-04-25T03:15:25.023Z,89.50
2024-04-25T03:17:57.523Z,90.00
2024-04-25T03:20:28.911Z,90.20
2024-04-25T03:22:57.225Z,90.30
2024-04-25T03:25:28.138Z,90.50
2024-04-25T03:28:03.113Z,90.70
2024-04-25T03:30:34.494Z,90.30
2024-04-25T03:33:06.567Z,90.30
2024-04-25T03:35:51.235Z,90.10
2024-04-25T03:38:32.258Z,90.20
2024-04-25T03:41:06.379Z,90.10
2024-04-25T03:43:40.396Z,90.30
2024-04-25T03:46:22.668Z,90.30
2024-04-25T03:48:58.693Z,90.60
2024-04-25T03:51:34.439Z,91.20
2024-04-25T03:54:10.067Z,91.10
2024-04-25T03:56:46.706Z,90.70
2024-04-25T03:59:28.037Z,90.50
2024-04-25T04:02:07.161Z,90.40
2024-04-25T04:04:38.508Z,90.30
2024-04-25T04:07:13.950Z,90.30
2024-04-25T04:09:46.202Z,90.40
2024-04-25T04:12:20.617Z,90.60
2024-04-25T04:14:55.452Z,90.20
2024-04-25T04:17:26.373Z,90.10
2024-04-25T04:19:57.685Z,90.20
2024-04-25T04:22:37.413Z,90.20
2024-04-25T04:25:11.155Z,90.60
2024-04-25T04:27:42.527Z,90.60
2024-04-25T04:30:19.414Z,90.40
2024-04-25T04:35:46.353Z,90.40
2024-04-25T04:38:21.404Z,90.20
2024-04-25T04:40:56.769Z,90.20
2024-04-25T04:43:30.287Z,90.60
2024-04-25T04:46:10.259Z,90.60
2024-04-25T04:48:45.283Z,90.60
2024-04-25T04:51:20.378Z,90.50
2024-04-25T04:53:53.628Z,90.60
2024-04-25T04:56:25.628Z,90.40
2024-04-25T04:59:01.110Z,90.50
2024-04-25T05:01:38.114Z,90.20
2024-04-25T05:04:15.044Z,90.00
2024-04-25T05:06:47.283Z,90.40
2024-04-25T05:09:18.506Z,90.40
2024-04-25T05:11:49.309Z,90.40
2024-04-25T05:14:20.176Z,90.50
2024-04-25T05:16:54.714Z,90.40
2024-04-25T05:19:26.191Z,90.20
2024-04-25T05:21:57.624Z,90.10
2024-04-25T05:24:28.505Z,90.30
2024-04-25T05:26:59.154Z,90.30
2024-04-25T05:29:33.777Z,90.40
2024-04-25T05:32:10.547Z,90.40
2024-04-25T05:34:41.229Z,90.50
2024-04-25T05:37:12.062Z,90.80
2024-04-25T05:39:43.112Z,90.80
2024-04-25T05:42:14.191Z,90.90
2024-04-25T05:44:50.310Z,91.00
2024-04-25T05:47:24.171Z,91.20
2024-04-25T05:49:54.974Z,91.30
2024-04-25T05:52:28.559Z,91.60
2024-04-25T05:54:59.300Z,91.50
2024-04-25T05:57:30.587Z,91.60
2024-04-25T06:00:01.173Z,91.50
2024-04-25T06:02:35.207Z,91.40
2024-04-25T06:05:06.444Z,91.40
2024-04-25T06:07:37.224Z,91.40
2024-04-25T06:10:09.349Z,91.20
2024-04-25T06:12:40.594Z,91.00
2024-04-25T06:15:12.017Z,91.20
2024-04-25T06:17:46.302Z,91.10
2024-04-25T06:20:18.116Z,91.40
2024-04-25T06:22:49.100Z,91.80
2024-04-25T06:25:20.160Z,91.80
2024-04-25T06:27:50.631Z,91.70
2024-04-25T06:30:21.337Z,91.60
2024-04-25T06:32:58.219Z,91.60
2024-04-25T06:35:28.947Z,91.80
2024-04-25T06:38:00.032Z,91.50
2024-04-25T06:40:31.252Z,91.60
2024-04-25T06:43:03.142Z,91.60
2024-04-25T06:45:34.058Z,92.00
2024-04-25T06:48:10.523Z,92.20
2024-04-25T06:50:43.571Z,92.40
2024-04-25T06:53:14.302Z,92.40
2024-04-25T06:55:45.243Z,92.20
2024-04-25T06:58:16.203Z,92.20
2024-04-25T07:00:47.056Z,91.70
2024-04-25T07:03:20.794Z,91.60
2024-04-25T07:05:52.255Z,91.70
2024-04-25T07:08:23.322Z,91.70
2024-04-25T07:10:54.766Z,91.90
2024-04-25T07:13:25.440Z,92.00
2024-04-25T07:15:56.663Z,92.30
2024-04-25T07:18:31.689Z,92.10
2024-04-25T07:21:02.711Z,91.70
2024-04-25T07:23:33.577Z,91.70
2024-04-25T07:26:04.725Z,91.30
2024-04-25T07:28:36.608Z,91.00
2024-04-25T07:31:08.351Z,91.20
2024-04-25T07:33:42.784Z,90.70
2024-04-25T07:36:13.540Z,90.50
2024-04-25T07:38:44.375Z,90.20
2024-04-25T07:41:15.387Z,90.20
2024-04-25T07:43:46.318Z,88.80
2024-04-25T07:46:17.312Z,87.90
2024-04-25T07:48:50.883Z,88.30
2024-04-25T07:51:22.093Z,88.10
2024-04-25T07:53:52.796Z,86.30
2024-04-25T07:56:23.980Z,85.20
2024-04-25T07:58:55.396Z,85.10
2024-04-25T08:01:26.367Z,86.60
2024-04-25T08:04:00.716Z,86.10
2024-04-25T08:06:33.706Z,86.80
2024-04-25T08:09:05.166Z,86.70
2024-04-25T08:11:38.940Z,86.10
2024-04-25T08:14:10.296Z,86.90
2024-04-25T08:16:41.151Z,86.80
2024-04-25T08:19:14.435Z,86.10
2024-04-25T08:21:45.708Z,86.40
2024-04-25T08:24:21.044Z,87.20
2024-04-25T08:26:52.259Z,87.50
2024-04-25T08:29:23.291Z,88.50
2024-04-25T08:31:54.423Z,88.30
2024-04-25T08:34:30.345Z,88.50
2024-04-25T08:37:01.663Z,88.90
2024-04-25T08:39:35.657Z,88.80
2024-04-25T08:42:10.485Z,88.00
2024-04-25T08:44:43.835Z,86.80
2024-04-25T08:47:16.466Z,86.70
2024-04-25T08:49:52.405Z,88.10
2024-04-25T08:52:25.860Z,88.20
2024-04-25T08:54:58.142Z,88.40
2024-04-25T08:57:30.925Z,87.60
2024-04-25T09:00:02.234Z,87.70
2024-04-25T09:02:34.084Z,86.80
2024-04-25T09:05:11.305Z,81.90
2024-04-25T09:07:45.182Z,81.20
2024-04-25T09:10:16.778Z,80.70
2024-04-25T09:12:48.464Z,77.70
2024-04-25T09:15:20.190Z,74.20
2024-04-25T09:18:01.908Z,71.00
2024-04-25T09:20:36.339Z,69.80
2024-04-25T09:23:07.221Z,70.40
2024-04-25T09:25:38.282Z,71.80
2024-04-25T09:28:09.929Z,71.70
2024-04-25T09:30:40.768Z,71.00
2024-04-25T09:33:11.983Z,69.30
2024-04-25T09:35:47.250Z,69.30
2024-04-25T09:38:19.024Z,70.50
2024-04-25T09:40:51.654Z,70.40
2024-04-25T09:43:23.337Z,69.70
2024-04-25T09:45:56.204Z,71.40
2024-04-25T09:48:28.518Z,72.90
2024-04-25T09:51:16.252Z,72.40
2024-04-25T09:53:52.248Z,73.20
2024-04-25T09:56:29.301Z,73.90
2024-04-25T09:59:06.417Z,75.50
2024-04-25T10:01:38.652Z,76.40
2024-04-25T10:04:10.432Z,75.40
2024-04-25T10:06:45.228Z,76.20
2024-04-25T10:09:16.377Z,74.10
2024-04-25T10:11:51.436Z,74.10
2024-04-25T10:14:34.844Z,74.90
2024-04-25T10:17:06.059Z,76.40
2024-04-25T10:19:40.300Z,77.20
2024-04-25T10:22:23.761Z,75.70
2024-04-25T10:24:56.237Z,75.80
2024-04-25T10:27:26.802Z,76.60
2024-04-25T10:30:06.112Z,76.60
2024-04-25T10:32:38.171Z,78.20
2024-04-25T10:35:09.368Z,78.90
2024-04-25T10:37:47.953Z,82.50
2024-04-25T10:40:22.487Z,83.40
2024-04-25T10:43:02.531Z,84.00
2024-04-25T10:45:38.180Z,84.50
2024-04-25T10:48:11.756Z,84.30
2024-04-25T10:50:43.003Z,85.60
2024-04-25T10:53:17.489Z,85.50
2024-04-25T10:55:49.223Z,85.10
2024-04-25T10:58:19.990Z,85.00
2024-04-25T11:00:54.394Z,85.00
2024-04-25T11:03:26.250Z,84.70
2024-04-25T11:05:57.322Z,85.20
2024-04-25T11:08:32.240Z,85.50
2024-04-25T11:11:03.434Z,85.60
2024-04-25T11:13:34.860Z,85.20
2024-04-25T11:16:05.701Z,84.40
2024-04-25T11:18:37.098Z,83.00
2024-04-25T11:21:10.486Z,82.00
2024-04-25T11:23:44.357Z,81.20
2024-04-25T11:26:16.061Z,79.90
2024-04-25T11:28:47.051Z,78.70
2024-04-25T11:31:20.250Z,79.40
2024-04-25T11:33:52.618Z,80.20
2024-04-25T11:36:29.506Z,81.20
2024-04-25T11:39:08.363Z,81.60
2024-04-25T11:41:41.547Z,81.50
2024-04-25T11:44:13.733Z,83.20
2024-04-25T11:46:48.951Z,84.20
2024-04-25T11:49:23.351Z,85.00
2024-04-25T11:51:56.534Z,85.30
2024-04-25T11:54:29.843Z,85.20
2024-04-25T11:57:02.505Z,85.00
2024-04-25T11:59:35.866Z,85.30
2024-04-25T12:02:13.742Z,86.40
2024-04-25T12:04:45.163Z,87.60
2024-04-25T12:07:24.479Z,85.60
2024-04-25T12:09:59.220Z,84.30
2024-04-25T12:12:32.640Z,84.10
2024-04-25T12:15:21.931Z,84.80
2024-04-25T12:17:53.816Z,86.30
2024-04-25T12:20:28.066Z,84.40
2024-04-25T12:23:03.396Z,83.50
2024-04-25T12:25:39.784Z,82.90
2024-04-25T12:28:13.737Z,83.70
2024-04-25T12:30:45.156Z,84.20
2024-04-25T12:33:18.095Z,83.70
2024-04-25T12:36:00.879Z,83.80
2024-04-25T12:38:32.150Z,84.50
2024-04-25T12:41:05.947Z,85.40
2024-04-25T12:43:39.410Z,85.30
2024-04-25T12:46:21.425Z,84.10
2024-04-25T12:48:56.047Z,85.20
2024-04-25T12:51:28.317Z,86.20
2024-04-25T12:54:02.566Z,87.30
2024-04-25T12:56:46.487Z,87.10
2024-04-25T12:59:21.693Z,86.70
2024-04-25T13:01:54.649Z,86.90
2024-04-25T13:04:26.047Z,86.00
2024-04-25T13:06:56.979Z,86.20
2024-04-25T13:09:47.074Z,87.40
2024-04-25T13:12:25.195Z,86.50
2024-04-25T13:14:58.928Z,87.90
2024-04-25T13:17:30.696Z,88.60
2024-04-25T13:20:02.476Z,88.80
2024-04-25T13:22:35.334Z,88.90
2024-04-25T13:25:17.376Z,89.00
2024-04-25T13:27:55.823Z,86.40
2024-04-25T13:30:34.185Z,85.90
2024-04-25T13:33:10.948Z,85.60
2024-04-25T13:35:46.130Z,84.70
2024-04-25T13:38:18.064Z,85.90
2024-04-25T13:40:49.161Z,85.80
2024-04-25T13:43:24.565Z,85.80
2024-04-25T13:45:57.399Z,86.60
2024-04-25T13:48:28.555Z,86.30
2024-04-25T13:50:59.611Z,85.80
2024-04-25T13:53:30.677Z,86.20
2024-04-25T13:56:02.085Z,86.90
2024-04-25T13:58:38.079Z,86.20
2024-04-25T14:01:12.711Z,84.50
2024-04-25T14:03:43.907Z,81.20
2024-04-25T14:06:15.046Z,82.90
2024-04-25T14:08:49.018Z,82.00
2024-04-25T14:11:20.868Z,81.40
2024-04-25T14:13:55.080Z,81.10
2024-04-25T14:16:26.114Z,81.30
2024-04-25T14:18:57.273Z,80.20
2024-04-25T14:21:28.155Z,80.80
2024-04-25T14:24:01.428Z,80.50
2024-04-25T14:26:48.096Z,81.00
2024-04-25T14:29:21.948Z,79.50
2024-04-25T14:31:53.141Z,80.20
2024-04-25T14:34:24.436Z,80.80
2024-04-25T14:36:55.356Z,81.70
2024-04-25T14:39:26.867Z,81.70
2024-04-25T14:41:57.952Z,81.10
2024-04-25T14:44:35.887Z,82.90
2024-04-25T14:47:08.536Z,82.30
2024-04-25T14:49:40.994Z,81.30
2024-04-25T14:52:14.425Z,82.70
2024-04-25T14:54:47.944Z,83.10
2024-04-25T14:57:18.736Z,84.40
2024-04-25T14:59:52.537Z,84.30
2024-04-25T15:02:23.831Z,84.60
2024-04-25T15:04:56.244Z,84.80
2024-04-25T15:07:26.996Z,84.70
2024-04-25T15:09:58.105Z,84.90
2024-04-25T15:12:39.655Z,85.50
2024-04-25T15:15:20.917Z,83.90
2024-04-25T15:17:58.214Z,84.60
2024-04-25T15:20:32.956Z,83.90
2024-04-25T15:23:05.843Z,84.40
2024-04-25T15:25:36.821Z,85.00
2024-04-25T15:28:08.676Z,85.50
2024-04-25T15:30:46.088Z,85.10
2024-04-25T15:33:28.400Z,85.60
2024-04-25T15:36:14.237Z,85.90
2024-04-25T15:39:01.092Z,86.20
2024-04-25T15:41:35.180Z,86.50
2024-04-25T15:44:11.774Z,86.20
2024-04-25T15:46:45.249Z,85.80
2024-04-25T15:49:16.535Z,86.20
2024-04-25T15:51:48.353Z,86.50
2024-04-25T15:54:19.379Z,86.30
2024-04-25T15:56:51.188Z,84.80
2024-04-25T15:59:22.415Z,84.20
2024-04-25T16:01:55.629Z,84.50
2024-04-25T16:04:40.930Z,84.30
2024-04-25T16:07:24.532Z,84.60
2024-04-25T16:09:58.971Z,83.30
2024-04-25T16:12:29.949Z,82.60
2024-04-25T16:15:00.944Z,83.70
2024-04-25T16:17:35.026Z,82.50
2024-04-25T16:20:07.406Z,82.00
2024-04-25T16:22:44.002Z,82.10
2024-04-25T16:25:20.983Z,83.10
2024-04-25T16:27:51.979Z,83.50
2024-04-25T16:30:22.748Z,83.00
2024-04-25T16:32:59.216Z,83.20
2024-04-25T16:35:30.633Z,84.00
2024-04-25T16:38:01.904Z,84.70
2024-04-25T16:40:33.488Z,84.30
2024-04-25T16:43:04.816Z,85.10
2024-04-25T16:45:35.673Z,84.70
2024-04-25T16:48:10.409Z,83.80
2024-04-25T16:50:41.375Z,83.40
2024-04-25T16:53:12.450Z,83.20
2024-04-25T16:55:45.406Z,83.60
2024-04-25T16:58:17.658Z,83.70
2024-04-25T17:00:59.029Z,84.50
2024-04-25T17:03:35.142Z,84.50
2024-04-25T17:06:06.517Z,84.60
2024-04-25T17:08:37.549Z,84.80
2024-04-25T17:11:09.513Z,85.00
2024-04-25T17:13:40.714Z,84.80
2024-04-25T17:16:11.750Z,84.70
2024-04-25T17:18:47.802Z,84.90
2024-04-25T17:21:19.534Z,85.20
2024-04-25T17:23:56.274Z,84.60
2024-04-25T17:26:27.578Z,84.40
2024-04-25T17:28:59.270Z,84.20
2024-04-25T17:31:31.620Z,83.90
2024-04-25T17:34:06.523Z,84.10
2024-04-25T17:36:37.850Z,84.70
2024-04-25T17:39:10.999Z,84.30
2024-04-25T17:41:45.035Z,84.40
2024-04-25T17:44:16.235Z,84.30
2024-04-25T17:46:47.741Z,84.30
2024-04-25T17:49:23.625Z,84.90
2024-04-25T17:51:55.352Z,85.00
2024-04-25T17:54:26.598Z,85.90
2024-04-25T17:56:57.612Z,85.60
2024-04-25T17:59:28.256Z,85.70
2024-04-25T18:02:01.053Z,86.00
2024-04-25T18:04:35.310Z,86.20
2024-04-25T18:07:13.458Z,86.00
2024-04-25T18:09:44.360Z,85.80
2024-04-25T18:12:15.454Z,85.60
2024-04-25T18:14:46.797Z,85.50
2024-04-25T18:17:18.126Z,84.80
2024-04-25T18:19:54.456Z,84.90
2024-04-25T18:22:26.844Z,85.20
2024-04-25T18:24:57.890Z,85.30
2024-04-25T18:27:41.449Z,85.50
2024-04-25T18:30:21.538Z,86.00
2024-04-25T18:32:52.760Z,85.50
2024-04-25T18:35:30.731Z,85.30
2024-04-25T18:38:02.406Z,85.00
2024-04-25T18:40:33.420Z,84.90
2024-04-25T18:43:02.216Z,84.50
2024-04-25T18:45:35.480Z,83.70
2024-04-25T18:48:12.827Z,83.90
2024-04-25T18:50:49.779Z,83.20
2024-04-25T18:53:22.906Z,83.50
2024-04-25T18:55:56.336Z,84.00
2024-04-25T18:58:27.987Z,84.10
2024-04-25T19:01:00.483Z,83.60
2024-04-25T19:03:32.547Z,83.70
2024-04-25T19:06:09.733Z,83.10
2024-04-25T19:08:49.527Z,83.40
2024-04-25T19:11:28.064Z,83.40
2024-04-25T19:13:59.461Z,83.70
2024-04-25T19:16:31.553Z,83.30
2024-04-25T19:19:00.551Z,83.50
2024-04-25T19:21:43.378Z,83.00
2024-04-25T19:24:16.182Z,82.90
2024-04-25T19:26:50.149Z,82.80
2024-04-25T19:29:22.410Z,82.90
2024-04-25T19:31:57.621Z,83.00
2024-04-25T19:34:31.873Z,82.90
2024-04-25T19:37:08.352Z,82.90
2024-04-25T19:39:44.952Z,83.30
2024-04-25T19:42:19.961Z,83.40
2024-04-25T19:44:51.143Z,83.40
2024-04-25T19:47:26.512Z,83.50
2024-04-25T19:49:57.522Z,83.90
2024-04-25T19:52:32.679Z,84.10
2024-04-25T19:55:08.273Z,84.30
2024-04-25T19:57:38.834Z,84.70
2024-04-25T20:00:11.615Z,84.70
2024-04-25T20:02:42.679Z,84.90
2024-04-25T20:05:15.523Z,85.20
2024-04-25T20:07:49.934Z,85.40
2024-04-25T20:10:21.519Z,85.70
2024-04-25T20:12:52.115Z,86.60
2024-04-25T20:15:25.982Z,86.40
2024-04-25T20:18:14.237Z,86.20
2024-04-25T20:21:01.139Z,85.70
2024-04-25T20:23:38.903Z,85.60
2024-04-25T20:26:13.223Z,85.30
2024-04-25T20:28:45.571Z,85.20
2024-04-25T20:31:19.555Z,84.50
2024-04-25T20:33:53.292Z,84.60
2024-04-25T20:36:24.675Z,84.80
2024-04-25T20:38:58.407Z,84.50
2024-04-25T20:41:31.267Z,84.10
2024-04-25T20:44:02.040Z,84.30
2024-04-25T20:46:35.852Z,84.60
2024-04-25T20:49:06.622Z,84.60
2024-04-25T20:51:43.751Z,84.40
2024-04-25T20:54:23.031Z,84.30
2024-04-25T20:56:54.361Z,84.50
2024-04-25T20:59:24.891Z,84.10
2024-04-25T21:01:55.932Z,84.00
2024-04-25T21:04:29.050Z,84.60
2024-04-25T21:07:02.105Z,84.60
2024-04-25T21:09:35.626Z,84.70
2024-04-25T21:12:07.976Z,84.00
2024-04-25T21:14:39.410Z,83.10
2024-04-25T21:17:14.340Z,81.90
2024-04-25T21:19:45.464Z,82.80
2024-04-25T21:22:17.276Z,82.70
2024-04-25T21:24:51.067Z,82.30
2024-04-25T21:27:22.323Z,82.50
2024-04-25T21:29:57.501Z,82.00
2024-04-25T21:32:42.870Z,81.70
2024-04-25T21:35:18.143Z,81.80
2024-04-25T21:37:49.312Z,81.90
2024-04-25T21:40:23.586Z,81.60
2024-04-25T21:42:57.014Z,81.40
2024-04-25T21:45:28.323Z,81.40
2024-04-25T21:48:00.817Z,81.70
2024-04-25T21:50:31.539Z,81.20
2024-04-25T21:53:03.018Z,81.20
2024-04-25T21:55:36.538Z,81.60
2024-04-25T21:58:10.737Z,82.10
2024-04-25T22:00:41.976Z,82.20
2024-04-25T22:03:13.296Z,82.00
2024-04-25T22:05:45.113Z,82.10
2024-04-25T22:08:16.304Z,82.00
2024-04-25T22:10:49.922Z,82.30
2024-04-25T22:13:23.443Z,82.80
2024-04-25T22:15:56.119Z,82.10
2024-04-25T22:18:27.075Z,82.80
2024-04-25T22:20:58.067Z,83.10
2024-04-25T22:23:29.049Z,82.80
2024-04-25T22:26:03.177Z,82.60
2024-04-25T22:28:37.659Z,82.80
2024-04-25T22:31:08.676Z,82.60
2024-04-25T22:33:39.746Z,83.10
2024-04-25T22:36:11.029Z,82.90
2024-04-25T22:38:42.382Z,83.20
2024-04-25T22:41:15.920Z,83.50
2024-04-25T22:43:46.839Z,83.90
2024-04-25T22:46:20.320Z,83.80
2024-04-25T22:48:51.164Z,83.20
2024-04-25T22:51:22.769Z,84.00
2024-04-25T22:53:56.451Z,83.90
2024-04-25T22:56:30.050Z,84.00
2024-04-25T22:59:03.849Z,84.30
2024-04-25T23:01:39.847Z,84.30
2024-04-25T23:04:11.076Z,83.50
2024-04-25T23:06:42.646Z,83.60
2024-04-25T23:09:13.690Z,83.70
2024-04-25T23:11:50.868Z,83.80
2024-04-25T23:14:22.186Z,84.10
2024-04-25T23:16:52.880Z,84.60
2024-04-25T23:19:23.734Z,84.50
2024-04-25T23:21:57.465Z,84.80
2024-04-25T23:24:28.343Z,85.50
2024-04-25T23:27:02.827Z,85.40
2024-04-25T23:29:36.771Z,85.40
2024-04-25T23:32:07.707Z,85.10
2024-04-25T23:34:38.731Z,85.10
2024-04-25T23:37:10.109Z,85.70
2024-04-25T23:39:42.982Z,85.50
2024-04-25T23:42:16.668Z,85.60
2024-04-25T23:44:49.548Z,85.50
2024-04-25T23:47:22.095Z,85.40
2024-04-25T23:49:53.614Z,85.10
2024-04-25T23:52:26.690Z,85.10
2024-04-25T23:55:03.119Z,85.60
2024-04-25T23:57:36.468Z,85.30
